createdAt,value
2023-05-09T00:00:28.465Z,58.81
2023-05-09T00:02:56.988Z,58.32
2023-05-09T00:05:25.353Z,58.31
2023-05-09T00:07:53.887Z,59.12
2023-05-09T00:10:22.472Z,59.34
2023-05-09T00:12:50.720Z,58.66
2023-05-09T00:15:19.591Z,59.47
2023-05-09T00:17:48.216Z,59.49
2023-05-09T00:20:16.389Z,58.62
2023-05-09T00:22:45.141Z,59.38
2023-05-09T00:25:13.982Z,58.56
2023-05-09T00:27:42.279Z,58.68
2023-05-09T00:30:10.886Z,59.34
2023-05-09T00:32:41.358Z,59.12
2023-05-09T00:35:10.378Z,59.15
2023-05-09T00:37:38.813Z,59.46
2023-05-09T00:40:09.271Z,59.87
2023-05-09T00:42:37.597Z,60.10
2023-05-09T00:45:07.139Z,60.38
2023-05-09T00:47:35.854Z,60.20
2023-05-09T00:50:05.264Z,60.18
2023-05-09T00:52:34.091Z,60.47
2023-05-09T00:55:03.149Z,60.00
2023-05-09T00:57:31.366Z,61.10
2023-05-09T01:00:00.871Z,60.56
2023-05-09T01:02:29.398Z,60.84
2023-05-09T01:04:58.546Z,61.21
2023-05-09T01:07:36.453Z,61.56
2023-05-09T01:10:21.461Z,61.25
2023-05-09T01:13:05.071Z,61.38
2023-05-09T01:15:41.408Z,62.10
2023-05-09T01:18:18.955Z,61.94
2023-05-09T01:21:08.845Z,61.99
2023-05-09T01:23:49.539Z,62.11
2023-05-09T01:26:17.873Z,62.33
2023-05-09T01:29:13.603Z,62.61
2023-05-09T01:31:45.268Z,62.71
2023-05-09T01:34:17.120Z,62.54
2023-05-09T01:36:48.851Z,62.58
2023-05-09T01:39:18.676Z,62.80
2023-05-09T01:41:49.663Z,62.87
2023-05-09T01:44:18.607Z,63.14
2023-05-09T01:46:48.159Z,64.24
2023-05-09T01:49:17.901Z,64.33
2023-05-09T01:51:48.408Z,65.02
2023-05-09T01:54:18.756Z,64.76
2023-05-09T01:56:48.571Z,64.77
2023-05-09T01:59:18.441Z,65.55
2023-05-09T02:01:47.417Z,65.40
2023-05-09T02:04:18.034Z,65.62
2023-05-09T02:06:51.402Z,64.85
2023-05-09T02:09:20.937Z,66.30
2023-05-09T02:11:49.244Z,65.95
2023-05-09T02:14:17.857Z,66.77
2023-05-09T02:16:46.296Z,66.60
2023-05-09T02:19:14.755Z,66.65
2023-05-09T02:21:43.316Z,66.54
2023-05-09T02:24:12.359Z,67.26
2023-05-09T02:26:41.332Z,68.17
2023-05-09T02:29:11.287Z,67.91
2023-05-09T02:31:41.190Z,66.95
2023-05-09T02:34:10.935Z,67.76
2023-05-09T02:36:39.989Z,67.72
2023-05-09T02:39:08.245Z,67.92
2023-05-09T02:41:36.829Z,68.51
2023-05-09T02:44:05.191Z,67.94
2023-05-09T02:46:33.737Z,68.42
2023-05-09T02:49:02.073Z,68.07
2023-05-09T02:51:30.379Z,68.27
2023-05-09T02:53:58.852Z,68.86
2023-05-09T02:56:27.560Z,69.34
2023-05-09T02:58:55.641Z,69.17
2023-05-09T03:01:24.221Z,68.98
2023-05-09T03:03:53.056Z,68.93
2023-05-09T03:06:21.576Z,68.61
2023-05-09T03:08:49.879Z,69.29
2023-05-09T03:11:18.906Z,69.19
2023-05-09T03:13:48.022Z,69.55
2023-05-09T03:16:18.597Z,70.20
2023-05-09T03:18:47.165Z,72.24
2023-05-09T03:21:15.915Z,71.49
2023-05-09T03:23:44.204Z,71.37
2023-05-09T03:26:12.549Z,72.96
2023-05-09T03:28:41.068Z,72.87
2023-05-09T03:31:09.581Z,72.85
2023-05-09T03:33:38.012Z,73.25
2023-05-09T03:36:06.678Z,73.15
2023-05-09T03:38:34.971Z,71.94
2023-05-09T03:41:04.099Z,71.03
2023-05-09T03:43:32.617Z,73.14
2023-05-09T03:46:00.808Z,73.98
2023-05-09T03:48:29.357Z,74.33
2023-05-09T03:50:58.433Z,74.17
2023-05-09T03:53:27.487Z,75.57
2023-05-09T03:55:56.040Z,75.04
2023-05-09T03:58:24.516Z,74.93
2023-05-09T04:00:53.688Z,75.24
2023-05-09T04:03:22.303Z,74.42
2023-05-09T04:05:50.948Z,72.33
2023-05-09T04:08:19.897Z,74.30
2023-05-09T04:10:49.866Z,74.33
2023-05-09T04:13:18.272Z,74.30
2023-05-09T04:15:46.978Z,74.85
2023-05-09T04:18:15.682Z,74.85
2023-05-09T04:20:44.048Z,74.07
2023-05-09T04:23:13.028Z,71.70
2023-05-09T04:25:41.637Z,72.56
2023-05-09T04:28:09.850Z,72.49
2023-05-09T04:30:38.571Z,73.81
2023-05-09T04:33:07.049Z,73.14
2023-05-09T04:35:35.777Z,72.94
2023-05-09T04:38:04.934Z,72.70
2023-05-09T04:40:33.598Z,70.79
2023-05-09T04:43:01.960Z,71.00
2023-05-09T04:45:30.406Z,70.63
2023-05-09T04:47:59.473Z,71.04
2023-05-09T04:50:27.867Z,69.46
2023-05-09T04:52:56.228Z,69.57
2023-05-09T04:55:24.778Z,68.95
2023-05-09T04:57:52.996Z,67.74
2023-05-09T05:00:21.921Z,67.71
2023-05-09T05:02:50.733Z,67.01
2023-05-09T05:05:24.535Z,66.30
2023-05-09T05:07:54.701Z,67.52
2023-05-09T05:10:23.339Z,65.78
2023-05-09T05:12:51.615Z,64.39
2023-05-09T05:15:20.589Z,63.13
2023-05-09T05:17:48.902Z,64.23
2023-05-09T05:20:18.461Z,62.96
2023-05-09T05:22:47.620Z,63.30
2023-05-09T05:25:17.862Z,64.24
2023-05-09T05:27:46.844Z,64.91
2023-05-09T05:30:17.996Z,62.91
2023-05-09T05:32:47.207Z,63.84
2023-05-09T05:35:17.001Z,63.38
2023-05-09T05:37:46.523Z,61.55
2023-05-09T05:40:17.150Z,62.22
2023-05-09T05:42:46.745Z,61.29
2023-05-09T05:45:15.397Z,61.52
2023-05-09T05:47:45.936Z,60.93
2023-05-09T05:50:14.717Z,61.41
2023-05-09T05:52:43.250Z,61.86
2023-05-09T05:55:12.743Z,61.90
2023-05-09T05:57:42.169Z,60.61
2023-05-09T06:00:11.859Z,60.92
2023-05-09T06:02:45.187Z,59.89
2023-05-09T06:05:15.282Z,60.71
2023-05-09T06:07:44.388Z,59.33
2023-05-09T06:10:12.720Z,59.11
2023-05-09T06:12:41.242Z,59.32
2023-05-09T06:15:09.813Z,60.09
2023-05-09T06:17:38.886Z,59.21
2023-05-09T06:20:07.848Z,59.25
2023-05-09T06:22:36.262Z,58.35
2023-05-09T06:25:04.769Z,58.33
2023-05-09T06:27:33.252Z,59.60
2023-05-09T06:30:02.805Z,58.01
2023-05-09T06:32:37.024Z,59.07
2023-05-09T06:35:05.567Z,59.76
2023-05-09T06:37:35.050Z,58.62
2023-05-09T06:40:03.749Z,58.51
2023-05-09T06:42:33.762Z,58.08
2023-05-09T06:45:01.880Z,58.98
2023-05-09T06:47:30.920Z,56.70
2023-05-09T06:49:59.144Z,56.65
2023-05-09T06:52:27.277Z,57.59
2023-05-09T06:54:55.839Z,57.13
2023-05-09T06:57:24.141Z,56.20
2023-05-09T06:59:52.407Z,56.15
2023-05-09T07:02:21.356Z,56.68
2023-05-09T07:04:49.710Z,56.04
2023-05-09T07:07:17.800Z,54.68
2023-05-09T07:09:46.500Z,57.44
2023-05-09T07:12:14.505Z,54.51
2023-05-09T07:14:42.701Z,55.05
2023-05-09T07:17:21.949Z,53.06
2023-05-09T07:19:51.914Z,53.05
2023-05-09T07:22:20.622Z,52.66
2023-05-09T07:24:48.853Z,52.97
2023-05-09T07:27:16.987Z,50.26
2023-05-09T07:29:45.924Z,51.71
2023-05-09T07:32:14.074Z,49.59
2023-05-09T07:34:42.443Z,50.12
2023-05-09T07:37:11.708Z,49.56
2023-05-09T07:39:41.231Z,48.24
2023-05-09T07:42:09.357Z,47.12
2023-05-09T07:44:38.133Z,44.70
2023-05-09T07:47:06.228Z,46.32
2023-05-09T07:49:34.538Z,44.97
2023-05-09T07:52:03.158Z,44.28
2023-05-09T07:54:31.645Z,45.17
2023-05-09T07:56:59.692Z,43.51
2023-05-09T07:59:28.423Z,44.89
2023-05-09T08:01:56.533Z,44.17
2023-05-09T08:04:25.029Z,42.02
2023-05-09T08:06:54.148Z,40.75
2023-05-09T08:09:22.270Z,41.65
2023-05-09T08:11:50.747Z,41.74
2023-05-09T08:14:19.086Z,40.65
2023-05-09T08:16:47.223Z,40.76
2023-05-09T08:19:15.846Z,41.99
2023-05-09T08:21:44.295Z,42.06
2023-05-09T08:24:12.275Z,42.47
2023-05-09T08:26:40.680Z,40.06
2023-05-09T08:29:09.080Z,39.98
2023-05-09T08:31:37.264Z,39.72
2023-05-09T08:34:05.679Z,39.29
2023-05-09T08:36:34.278Z,42.02
2023-05-09T08:39:02.446Z,38.98
2023-05-09T08:41:36.299Z,40.06
2023-05-09T08:44:04.970Z,40.30
2023-05-09T08:46:39.472Z,38.00
2023-05-09T08:49:08.335Z,39.05
2023-05-09T08:51:38.101Z,37.74
2023-05-09T08:54:06.514Z,39.03
2023-05-09T08:56:35.291Z,38.45
2023-05-09T08:59:05.698Z,39.33
2023-05-09T09:01:36.156Z,37.79
2023-05-09T09:04:08.906Z,38.91
2023-05-09T09:06:39.060Z,37.80
2023-05-09T09:09:11.529Z,38.27
2023-05-09T09:11:41.130Z,38.90
2023-05-09T09:14:16.148Z,38.03
2023-05-09T09:16:49.157Z,40.28
2023-05-09T09:19:19.255Z,35.98
2023-05-09T09:21:49.920Z,36.65
2023-05-09T09:24:22.700Z,35.38
2023-05-09T09:26:52.033Z,34.27
2023-05-09T09:29:23.007Z,34.12
2023-05-09T09:31:55.360Z,36.57
2023-05-09T09:34:24.310Z,34.46
2023-05-09T09:36:52.485Z,34.74
2023-05-09T09:39:22.116Z,35.03
2023-05-09T09:41:50.840Z,34.52
2023-05-09T09:44:20.885Z,33.45
2023-05-09T09:46:54.081Z,34.34
2023-05-09T09:49:24.814Z,34.89
2023-05-09T09:51:55.751Z,33.27
2023-05-09T09:54:28.546Z,35.36
2023-05-09T09:56:57.135Z,35.03
2023-05-09T09:59:27.381Z,33.36
2023-05-09T10:02:07.082Z,33.16
2023-05-09T10:04:39.160Z,33.36
2023-05-09T10:07:14.331Z,33.13
2023-05-09T10:09:43.988Z,33.42
2023-05-09T10:12:14.770Z,34.13
2023-05-09T10:14:43.910Z,35.42
2023-05-09T10:17:14.816Z,34.81
2023-05-09T10:19:47.872Z,34.85
2023-05-09T10:22:19.284Z,33.42
2023-05-09T10:24:56.950Z,35.88
2023-05-09T10:27:28.726Z,34.32
2023-05-09T10:30:05.046Z,34.62
2023-05-09T10:32:39.568Z,34.76
2023-05-09T10:35:11.160Z,35.54
2023-05-09T10:37:40.177Z,36.03
2023-05-09T10:40:09.458Z,35.72
2023-05-09T10:42:37.933Z,35.85
2023-05-09T10:45:07.463Z,36.65
2023-05-09T10:47:36.406Z,38.50
2023-05-09T10:50:05.784Z,36.85
2023-05-09T10:52:34.341Z,37.80
2023-05-09T10:55:05.117Z,38.18
2023-05-09T10:57:39.128Z,39.51
2023-05-09T11:00:08.774Z,38.96
2023-05-09T11:02:39.246Z,38.06
2023-05-09T11:05:16.316Z,38.30
2023-05-09T11:07:45.172Z,37.22
2023-05-09T11:10:18.170Z,38.52
2023-05-09T11:13:00.354Z,38.32
2023-05-09T11:15:29.116Z,38.77
2023-05-09T11:18:08.270Z,37.47
2023-05-09T11:20:43.860Z,38.41
2023-05-09T11:23:12.812Z,39.10
2023-05-09T11:25:42.143Z,38.76
2023-05-09T11:28:11.840Z,39.53
2023-05-09T11:30:42.902Z,38.11
2023-05-09T11:33:27.294Z,39.46
2023-05-09T11:36:14.781Z,41.62
2023-05-09T11:38:43.057Z,37.32
2023-05-09T11:41:11.584Z,36.62
2023-05-09T11:43:40.410Z,37.99
2023-05-09T11:46:08.820Z,38.39
2023-05-09T11:48:42.344Z,37.42
2023-05-09T11:51:18.669Z,38.01
2023-05-09T11:53:51.634Z,38.15
2023-05-09T11:56:20.601Z,37.13
2023-05-09T11:58:51.401Z,37.53
2023-05-09T12:01:20.128Z,39.02
2023-05-09T12:03:49.478Z,38.92
2023-05-09T12:06:18.978Z,39.05
2023-05-09T12:08:48.149Z,37.76
2023-05-09T12:11:17.179Z,38.29
2023-05-09T12:13:46.985Z,38.02
2023-05-09T12:16:17.421Z,36.85
2023-05-09T12:18:51.374Z,37.55
2023-05-09T12:21:20.798Z,38.52
2023-05-09T12:23:51.745Z,38.88
2023-05-09T12:26:23.063Z,39.65
2023-05-09T12:28:52.089Z,38.80
2023-05-09T12:31:21.045Z,40.11
2023-05-09T12:33:49.644Z,39.26
2023-05-09T12:36:18.868Z,39.75
2023-05-09T12:38:56.048Z,39.33
2023-05-09T12:43:56.084Z,39.61
2023-05-09T12:46:24.900Z,39.45
2023-05-09T12:48:53.816Z,39.53
2023-05-09T12:51:22.669Z,39.49
2023-05-09T12:53:51.551Z,39.31
2023-05-09T12:56:23.455Z,38.58
2023-05-09T12:58:56.132Z,39.36
2023-05-09T13:01:28.805Z,40.33
2023-05-09T13:04:03.975Z,41.48
2023-05-09T13:06:32.891Z,40.14
2023-05-09T13:09:02.908Z,37.70
2023-05-09T13:11:34.303Z,37.92
2023-05-09T13:14:04.167Z,40.43
2023-05-09T13:16:32.944Z,39.61
2023-05-09T13:19:01.966Z,40.45
2023-05-09T13:21:30.333Z,39.19
2023-05-09T13:23:58.722Z,39.59
2023-05-09T13:26:27.657Z,39.67
2023-05-09T13:28:56.410Z,39.88
2023-05-09T13:31:24.842Z,40.45
2023-05-09T13:33:53.762Z,37.74
2023-05-09T13:36:22.507Z,39.37
2023-05-09T13:38:51.213Z,40.64
2023-05-09T13:41:23.936Z,40.16
2023-05-09T13:43:52.438Z,40.77
2023-05-09T13:46:20.875Z,39.99
2023-05-09T13:48:49.101Z,40.72
2023-05-09T13:51:17.833Z,41.05
2023-05-09T13:53:46.150Z,41.25
2023-05-09T13:56:14.331Z,39.19
2023-05-09T13:58:42.659Z,39.49
2023-05-09T14:01:11.433Z,42.71
2023-05-09T14:03:39.991Z,41.11
2023-05-09T14:06:09.409Z,42.42
2023-05-09T14:08:37.804Z,39.86
2023-05-09T14:11:07.499Z,41.71
2023-05-09T14:13:36.775Z,39.36
2023-05-09T14:16:05.292Z,40.43
2023-05-09T14:18:34.047Z,40.81
2023-05-09T14:21:02.131Z,40.14
2023-05-09T14:23:30.548Z,40.85
2023-05-09T14:25:59.139Z,40.73
2023-05-09T14:28:27.435Z,40.44
2023-05-09T14:30:55.728Z,42.65
2023-05-09T14:33:24.447Z,42.70
2023-05-09T14:35:52.661Z,41.84
2023-05-09T14:38:21.286Z,40.92
2023-05-09T14:40:49.702Z,41.29
2023-05-09T14:43:17.690Z,41.63
2023-05-09T14:45:46.041Z,43.10
2023-05-09T14:48:16.078Z,43.99
2023-05-09T14:50:44.457Z,43.36
2023-05-09T14:53:13.302Z,43.46
2023-05-09T14:55:42.045Z,43.03
2023-05-09T14:58:10.243Z,42.65
2023-05-09T15:00:38.712Z,42.69
2023-05-09T15:03:07.609Z,43.07
2023-05-09T15:05:36.043Z,41.34
2023-05-09T15:08:04.472Z,43.28
2023-05-09T15:10:33.740Z,42.91
2023-05-09T15:13:05.584Z,43.13
2023-05-09T15:15:34.857Z,42.10
2023-05-09T15:18:03.358Z,41.72
2023-05-09T15:20:31.608Z,39.46
2023-05-09T15:23:04.041Z,42.07
2023-05-09T15:25:33.822Z,41.45
2023-05-09T15:28:03.036Z,41.68
2023-05-09T15:30:31.363Z,42.36
2023-05-09T15:33:00.066Z,42.70
2023-05-09T15:35:28.480Z,41.82
2023-05-09T15:37:56.599Z,41.38
2023-05-09T15:40:24.957Z,42.20
2023-05-09T15:42:53.781Z,42.35
2023-05-09T15:45:21.959Z,43.15
2023-05-09T15:47:50.097Z,42.96
2023-05-09T15:50:18.783Z,42.53
2023-05-09T15:52:47.240Z,43.03
2023-05-09T15:55:15.345Z,42.65
2023-05-09T15:57:45.300Z,42.66
2023-05-09T16:00:16.549Z,42.68
2023-05-09T16:02:45.020Z,41.65
2023-05-09T16:05:13.644Z,43.14
2023-05-09T16:07:47.204Z,42.41
2023-05-09T16:10:16.552Z,42.13
2023-05-09T16:12:45.184Z,42.58
2023-05-09T16:15:13.562Z,43.59
2023-05-09T16:17:43.504Z,43.90
2023-05-09T16:20:14.206Z,44.26
2023-05-09T16:22:43.933Z,44.41
2023-05-09T16:25:12.083Z,43.94
2023-05-09T16:27:40.217Z,43.23
2023-05-09T16:30:09.835Z,43.58
2023-05-09T16:32:38.355Z,44.10
2023-05-09T16:35:07.688Z,43.28
2023-05-09T16:37:36.291Z,43.36
2023-05-09T16:40:04.891Z,44.28
2023-05-09T16:42:33.128Z,44.60
2023-05-09T16:45:01.960Z,44.67
2023-05-09T16:47:31.019Z,43.95
2023-05-09T16:49:59.632Z,43.46
2023-05-09T16:52:28.240Z,43.57
2023-05-09T16:54:59.279Z,44.39
2023-05-09T16:57:27.992Z,43.07
2023-05-09T16:59:56.364Z,43.52
2023-05-09T17:02:24.510Z,44.52
2023-05-09T17:04:53.011Z,43.81
2023-05-09T17:07:21.335Z,44.15
2023-05-09T17:09:49.806Z,44.07
2023-05-09T17:12:18.602Z,44.39
2023-05-09T17:14:50.092Z,43.85
2023-05-09T17:17:18.627Z,44.69
2023-05-09T17:19:47.398Z,44.82
2023-05-09T17:22:15.862Z,44.80
2023-05-09T17:24:44.556Z,45.56
2023-05-09T17:27:12.689Z,45.28
2023-05-09T17:29:40.947Z,44.50
2023-05-09T17:32:09.559Z,44.78
2023-05-09T17:34:38.989Z,44.27
2023-05-09T17:37:09.052Z,43.99
2023-05-09T17:39:38.488Z,44.33
2023-05-09T17:42:14.809Z,45.66
2023-05-09T17:44:51.333Z,46.67
2023-05-09T17:47:25.614Z,46.76
2023-05-09T17:49:59.952Z,46.80
2023-05-09T17:52:51.388Z,47.47
2023-05-09T17:55:29.067Z,47.16
2023-05-09T17:57:57.603Z,47.99
2023-05-09T18:00:26.086Z,48.04
2023-05-09T18:02:54.187Z,47.62
2023-05-09T18:05:23.742Z,47.56
2023-05-09T18:07:53.500Z,47.77
2023-05-09T18:10:21.683Z,47.84
2023-05-09T18:12:50.229Z,48.30
2023-05-09T18:15:18.549Z,48.02
2023-05-09T18:17:48.558Z,48.83
2023-05-09T18:20:17.874Z,49.09
2023-05-09T18:22:47.105Z,48.63
2023-05-09T18:25:15.439Z,48.55
2023-05-09T18:27:43.953Z,49.11
2023-05-09T18:30:12.568Z,48.71
2023-05-09T18:32:41.782Z,49.74
2023-05-09T18:35:10.459Z,49.12
2023-05-09T18:37:38.973Z,49.44
2023-05-09T18:40:10.732Z,50.00
2023-05-09T18:42:39.356Z,50.45
2023-05-09T18:45:13.105Z,50.51
2023-05-09T18:47:42.616Z,49.77
2023-05-09T18:50:13.867Z,50.31
2023-05-09T18:52:44.740Z,50.58
2023-05-09T18:55:14.846Z,50.80
2023-05-09T18:57:43.380Z,50.79
2023-05-09T19:00:12.705Z,50.95
2023-05-09T19:02:41.162Z,51.37
2023-05-09T19:05:09.654Z,51.82
2023-05-09T19:07:39.173Z,52.57
2023-05-09T19:10:10.167Z,52.64
2023-05-09T19:12:38.910Z,52.53
2023-05-09T19:15:07.934Z,52.85
2023-05-09T19:17:36.522Z,52.32
2023-05-09T19:20:06.127Z,52.98
2023-05-09T19:22:35.562Z,52.43
2023-05-09T19:25:03.761Z,51.97
2023-05-09T19:27:32.236Z,52.38
2023-05-09T19:30:00.816Z,52.71
2023-05-09T19:32:30.411Z,52.83
2023-05-09T19:34:59.145Z,52.60
2023-05-09T19:37:27.875Z,53.12
2023-05-09T19:39:56.287Z,52.02
2023-05-09T19:42:25.037Z,53.13
2023-05-09T19:44:53.418Z,52.77
2023-05-09T19:47:22.296Z,53.24
2023-05-09T19:49:51.379Z,53.87
2023-05-09T19:52:20.232Z,54.63
2023-05-09T19:54:49.467Z,53.76
2023-05-09T19:57:18.674Z,54.02
2023-05-09T19:59:47.522Z,54.54
2023-05-09T20:02:15.668Z,54.75
2023-05-09T20:04:49.713Z,54.20
2023-05-09T20:07:18.041Z,54.39
2023-05-09T20:09:47.744Z,54.43
2023-05-09T20:12:16.135Z,54.97
2023-05-09T20:14:44.678Z,55.02
2023-05-09T20:17:13.133Z,54.84
2023-05-09T20:19:42.019Z,55.04
2023-05-09T20:22:10.406Z,55.19
2023-05-09T20:24:41.393Z,55.53
2023-05-09T20:27:10.222Z,55.72
2023-05-09T20:29:38.792Z,56.30
2023-05-09T20:32:07.082Z,56.58
2023-05-09T20:34:35.682Z,56.69
2023-05-09T20:37:04.268Z,56.72
2023-05-09T20:39:32.895Z,57.20
2023-05-09T20:42:02.670Z,57.58
2023-05-09T20:44:31.027Z,57.76
2023-05-09T20:46:59.396Z,57.47
2023-05-09T20:49:27.900Z,57.30
2023-05-09T20:51:56.257Z,56.54
2023-05-09T20:54:24.553Z,57.80
2023-05-09T20:56:52.915Z,57.67
2023-05-09T20:59:21.346Z,57.40
2023-05-09T21:01:49.594Z,57.74
2023-05-09T21:04:18.227Z,57.63
2023-05-09T21:06:46.630Z,57.33
2023-05-09T21:09:14.832Z,57.69
2023-05-09T21:11:43.061Z,58.73
2023-05-09T21:14:11.690Z,58.94
2023-05-09T21:16:40.188Z,58.60
2023-05-09T21:19:09.148Z,58.16
2023-05-09T21:21:37.420Z,58.36
2023-05-09T21:24:09.177Z,57.91
2023-05-09T21:26:37.847Z,59.11
2023-05-09T21:29:06.656Z,59.17
2023-05-09T21:31:35.339Z,59.40
2023-05-09T21:34:09.863Z,59.70
2023-05-09T21:36:38.946Z,59.52
2023-05-09T21:39:11.769Z,60.23
2023-05-09T21:41:41.920Z,59.88
2023-05-09T21:44:12.060Z,59.48
2023-05-09T21:46:41.326Z,59.63
2023-05-09T21:49:09.722Z,59.53
2023-05-09T21:51:37.992Z,59.60
2023-05-09T21:54:06.390Z,60.52
2023-05-09T21:56:34.870Z,60.38
2023-05-09T21:59:03.320Z,60.36
2023-05-09T22:01:31.527Z,60.44
2023-05-09T22:04:00.239Z,60.40
2023-05-09T22:06:28.434Z,60.71
2023-05-09T22:08:56.617Z,59.62
2023-05-09T22:11:25.221Z,58.23
2023-05-09T22:13:53.464Z,58.15
2023-05-09T22:16:22.743Z,59.11
2023-05-09T22:18:51.513Z,59.77
2023-05-09T22:21:19.519Z,60.46
2023-05-09T22:23:47.979Z,60.47
2023-05-09T22:26:16.394Z,59.41
2023-05-09T22:28:44.638Z,60.18
2023-05-09T22:31:12.748Z,60.98
2023-05-09T22:33:41.222Z,60.13
2023-05-09T22:36:10.784Z,59.11
2023-05-09T22:38:38.995Z,59.52
2023-05-09T22:41:07.634Z,60.45
2023-05-09T22:43:39.319Z,59.68
2023-05-09T22:46:08.846Z,59.06
2023-05-09T22:48:37.090Z,59.89
2023-05-09T22:51:05.331Z,59.46
2023-05-09T22:53:33.884Z,59.00
2023-05-09T22:56:01.963Z,59.11
2023-05-09T22:58:30.189Z,59.06
2023-05-09T23:00:59.117Z,59.59
2023-05-09T23:03:27.473Z,60.18
2023-05-09T23:05:55.774Z,60.34
2023-05-09T23:08:24.470Z,59.68
2023-05-09T23:10:52.579Z,59.39
2023-05-09T23:13:21.334Z,59.57
2023-05-09T23:15:49.883Z,59.78
2023-05-09T23:18:18.122Z,59.99
2023-05-09T23:20:46.447Z,60.21
2023-05-09T23:23:15.133Z,61.35
2023-05-09T23:25:44.418Z,61.17
2023-05-09T23:28:12.605Z,61.85
2023-05-09T23:30:41.492Z,60.90
2023-05-09T23:33:09.583Z,61.01
2023-05-09T23:35:37.758Z,60.79
2023-05-09T23:38:06.370Z,61.74
2023-05-09T23:40:34.609Z,62.48
2023-05-09T23:43:02.784Z,62.13
2023-05-09T23:45:31.633Z,61.96
2023-05-09T23:47:59.754Z,61.95
2023-05-09T23:50:27.919Z,61.80
2023-05-09T23:52:56.547Z,62.78
2023-05-09T23:55:24.773Z,62.58
2023-05-09T23:57:52.819Z,63.03
